createdAt,value
2017-09-19T00:00:25.626Z,98.80
2017-09-19T00:02:55.221Z,98.90
2017-09-19T00:05:26.513Z,97.70
2017-09-19T00:07:56.086Z,97.70
2017-09-19T00:10:25.416Z,97.60
2017-09-19T00:12:54.739Z,97.70
2017-09-19T00:15:24.568Z,97.70
2017-09-19T00:17:54.347Z,98.10
2017-09-19T00:20:23.647Z,98.60
2017-09-19T00:22:52.962Z,98.60
2017-09-19T00:25:22.310Z,98.50
2017-09-19T00:27:51.625Z,98.60
2017-09-19T00:30:21.393Z,99.40
2017-09-19T00:32:50.734Z,99.60
2017-09-19T00:35:20.049Z,99.90
2017-09-19T00:37:49.859Z,99.90
2017-09-19T00:40:19.971Z,99.90
2017-09-19T00:42:50.088Z,99.90
2017-09-19T00:45:20.524Z,99.90
2017-09-19T00:47:49.813Z,99.90
2017-09-19T00:50:19.144Z,99.90
2017-09-19T00:52:48.515Z,99.90
2017-09-19T00:55:17.831Z,99.90
2017-09-19T00:57:48.219Z,99.90
2017-09-19T01:00:17.551Z,99.90
2017-09-19T01:02:47.234Z,99.90
2017-09-19T01:05:16.605Z,99.90
2017-09-19T01:07:45.926Z,99.90
2017-09-19T01:10:15.709Z,99.90
2017-09-19T01:12:50.505Z,99.90
2017-09-19T01:15:21.057Z,99.90
2017-09-19T01:17:50.365Z,99.90
2017-09-19T01:20:19.962Z,99.90
2017-09-19T01:22:49.293Z,99.90
2017-09-19T01:25:19.438Z,99.90
2017-09-19T01:27:51.641Z,99.90
2017-09-19T01:30:21.307Z,99.90
2017-09-19T01:32:50.790Z,99.90
2017-09-19T01:35:20.098Z,99.90
2017-09-19T01:37:49.702Z,99.90
2017-09-19T01:40:19.060Z,99.90
2017-09-19T01:42:48.535Z,99.90
2017-09-19T01:45:17.841Z,99.90
2017-09-19T01:47:47.270Z,99.90
2017-09-19T01:50:17.678Z,99.90
2017-09-19T01:52:47.169Z,99.90
2017-09-19T01:55:16.518Z,99.90
2017-09-19T01:57:45.867Z,99.90
2017-09-19T02:00:15.218Z,99.90
2017-09-19T02:02:44.937Z,99.90
2017-09-19T02:05:14.305Z,99.90
2017-09-19T02:07:43.598Z,99.90
2017-09-19T02:10:13.295Z,99.90
2017-09-19T02:12:43.414Z,99.90
2017-09-19T02:15:12.727Z,99.90
2017-09-19T02:17:43.602Z,99.90
2017-09-19T02:20:12.977Z,99.90
2017-09-19T02:22:42.645Z,99.90
2017-09-19T02:25:11.951Z,99.90
2017-09-19T02:27:41.272Z,99.90
2017-09-19T02:30:11.010Z,99.90
2017-09-19T02:32:40.364Z,99.90
2017-09-19T02:35:09.746Z,99.90
2017-09-19T02:37:39.017Z,99.90
2017-09-19T02:40:08.578Z,99.90
2017-09-19T02:42:38.202Z,99.90
2017-09-19T02:45:09.324Z,99.90
2017-09-19T02:47:38.666Z,99.90
2017-09-19T02:50:07.994Z,99.90
2017-09-19T02:52:37.422Z,99.90
2017-09-19T02:55:07.212Z,99.90
2017-09-19T02:57:36.557Z,99.90
2017-09-19T03:00:06.178Z,99.90
2017-09-19T03:02:35.939Z,99.90
2017-09-19T03:05:05.260Z,99.90
2017-09-19T03:07:35.422Z,99.90
2017-09-19T03:10:05.698Z,99.90
2017-09-19T03:12:35.055Z,99.90
2017-09-19T03:15:05.553Z,99.90
2017-09-19T03:17:35.397Z,99.90
2017-09-19T03:20:05.011Z,99.90
2017-09-19T03:22:35.367Z,99.90
2017-09-19T03:25:04.809Z,99.90
2017-09-19T03:27:34.968Z,99.90
2017-09-19T03:30:04.283Z,99.90
2017-09-19T03:32:33.641Z,99.90
2017-09-19T03:35:03.474Z,99.90
2017-09-19T03:37:32.879Z,99.90
2017-09-19T03:40:05.178Z,99.90
2017-09-19T03:42:34.474Z,99.90
2017-09-19T03:45:05.762Z,99.90
2017-09-19T03:47:37.000Z,99.90
2017-09-19T03:50:09.724Z,99.90
2017-09-19T03:52:39.457Z,99.90
2017-09-19T03:55:08.810Z,99.90
2017-09-19T03:57:39.650Z,99.90
2017-09-19T04:00:09.429Z,99.90
2017-09-19T04:02:38.742Z,99.90
2017-09-19T04:05:29.530Z,99.90
2017-09-19T04:07:59.302Z,99.90
2017-09-19T04:10:28.626Z,99.90
2017-09-19T04:12:58.260Z,99.90
2017-09-19T04:15:27.618Z,99.90
2017-09-19T04:17:56.974Z,99.90
2017-09-19T04:20:26.828Z,99.70
2017-09-19T04:22:56.309Z,99.90
2017-09-19T04:25:25.653Z,99.90
2017-09-19T04:27:55.005Z,99.90
2017-09-19T04:30:24.338Z,99.90
2017-09-19T04:32:54.082Z,99.90
2017-09-19T04:35:24.093Z,99.90
2017-09-19T04:37:53.750Z,99.90
2017-09-19T04:40:35.336Z,99.90
2017-09-19T04:43:04.902Z,99.90
2017-09-19T04:45:34.246Z,99.90
2017-09-19T04:48:03.633Z,99.90
2017-09-19T04:50:32.944Z,99.90
2017-09-19T04:53:04.094Z,99.90
2017-09-19T04:55:33.427Z,99.90
2017-09-19T04:58:09.498Z,99.90
2017-09-19T05:00:38.879Z,99.90
2017-09-19T05:15:40.040Z,99.90
2017-09-19T05:18:09.585Z,99.90
2017-09-19T05:20:39.125Z,99.90
2017-09-19T05:23:08.967Z,99.90
2017-09-19T05:25:39.605Z,99.90
2017-09-19T05:28:09.159Z,99.90
2017-09-19T05:30:38.772Z,99.90
2017-09-19T05:33:08.743Z,99.90
2017-09-19T05:35:39.576Z,99.90
2017-09-19T05:38:09.926Z,99.90
2017-09-19T05:40:40.189Z,99.90
2017-09-19T05:43:10.526Z,99.90
2017-09-19T05:45:40.086Z,99.90
2017-09-19T05:48:09.917Z,99.40
2017-09-19T05:50:39.553Z,99.30
2017-09-19T05:53:09.153Z,99.80
2017-09-19T05:55:39.313Z,99.90
2017-09-19T05:58:08.923Z,99.90
2017-09-19T06:00:38.583Z,99.90
2017-09-19T06:03:09.311Z,99.90
2017-09-19T06:05:39.038Z,99.90
2017-09-19T06:08:09.359Z,99.90
2017-09-19T06:10:39.271Z,99.90
2017-09-19T06:13:08.811Z,99.90
2017-09-19T06:15:39.135Z,99.90
2017-09-19T06:18:09.032Z,99.90
2017-09-19T06:20:38.579Z,99.90
2017-09-19T06:23:08.155Z,99.90
2017-09-19T06:25:38.733Z,99.90
2017-09-19T06:28:08.466Z,99.90
2017-09-19T06:30:38.067Z,99.90
2017-09-19T06:33:07.972Z,99.90
2017-09-19T06:35:37.643Z,99.90
2017-09-19T06:38:07.331Z,99.90
2017-09-19T06:40:37.727Z,99.90
2017-09-19T06:43:07.495Z,99.90
2017-09-19T06:45:37.079Z,99.90
2017-09-19T06:48:07.523Z,99.90
2017-09-19T06:50:38.197Z,99.90
2017-09-19T06:53:07.882Z,99.90
2017-09-19T06:55:37.470Z,99.90
2017-09-19T06:58:08.075Z,99.90
2017-09-19T07:00:37.745Z,99.90
2017-09-19T07:03:07.385Z,99.90
2017-09-19T07:05:38.000Z,99.90
2017-09-19T07:08:07.615Z,99.90
2017-09-19T07:10:37.167Z,99.90
2017-09-19T07:13:07.880Z,99.90
2017-09-19T07:15:38.237Z,99.90
2017-09-19T07:18:07.755Z,99.90
2017-09-19T07:20:37.344Z,99.90
2017-09-19T07:23:07.665Z,99.90
2017-09-19T07:25:37.508Z,99.90
2017-09-19T07:28:07.419Z,99.90
2017-09-19T07:30:37.036Z,99.90
2017-09-19T07:33:06.880Z,99.90
2017-09-19T07:35:36.682Z,99.90
2017-09-19T07:38:06.351Z,99.90
2017-09-19T07:40:36.729Z,99.20
2017-09-19T07:43:07.103Z,99.60
2017-09-19T07:45:36.718Z,99.60
2017-09-19T07:48:06.345Z,98.60
2017-09-19T07:50:35.892Z,99.10
2017-09-19T07:53:06.294Z,98.90
2017-09-19T07:55:35.891Z,98.80
2017-09-19T07:58:05.865Z,97.50
2017-09-19T08:00:35.460Z,98.00
2017-09-19T08:03:20.500Z,97.90
2017-09-19T08:05:51.458Z,98.50
2017-09-19T08:08:21.606Z,98.90
2017-09-19T08:10:52.234Z,98.20
2017-09-19T08:13:31.635Z,98.20
2017-09-19T08:16:02.913Z,98.80
2017-09-19T08:18:48.969Z,99.20
2017-09-19T08:21:19.551Z,99.00
2017-09-19T08:23:51.268Z,98.20
2017-09-19T08:26:21.072Z,98.30
2017-09-19T08:28:52.819Z,96.50
2017-09-19T08:31:28.506Z,96.70
2017-09-19T08:34:01.705Z,96.80
2017-09-19T08:36:33.938Z,95.80
2017-09-19T08:39:06.533Z,95.60
2017-09-19T08:41:36.537Z,95.60
2017-09-19T08:44:09.626Z,96.20
2017-09-19T08:46:39.232Z,97.00
2017-09-19T08:49:08.940Z,96.90
2017-09-19T08:51:54.445Z,97.40
2017-09-19T08:54:24.356Z,97.10
2017-09-19T08:57:04.224Z,97.90
2017-09-19T08:59:36.853Z,98.20
2017-09-19T09:02:08.802Z,98.10
2017-09-19T09:04:39.945Z,99.00
2017-09-19T09:07:10.523Z,99.20
2017-09-19T09:09:42.271Z,99.30
2017-09-19T09:12:14.964Z,99.50
2017-09-19T09:14:45.340Z,99.50
2017-09-19T09:17:15.764Z,98.30
2017-09-19T09:19:47.572Z,98.30
2017-09-19T09:22:18.221Z,98.30
2017-09-19T09:24:48.169Z,97.40
2017-09-19T09:27:17.874Z,97.90
2017-09-19T09:29:56.064Z,98.20
2017-09-19T09:32:26.554Z,98.20
2017-09-19T09:34:56.437Z,99.90
2017-09-19T09:37:26.881Z,99.30
2017-09-19T09:40:01.728Z,99.30
2017-09-19T09:42:32.526Z,99.90
2017-09-19T09:45:02.814Z,98.60
2017-09-19T09:47:32.672Z,98.30
2017-09-19T09:50:03.201Z,96.90
2017-09-19T09:52:34.580Z,98.50
2017-09-19T09:55:07.788Z,98.50
2017-09-19T09:57:53.009Z,97.40
2017-09-19T10:00:23.504Z,98.00
2017-09-19T10:02:53.337Z,99.90
2017-09-19T10:05:23.705Z,99.20
2017-09-19T10:08:57.836Z,98.20
2017-09-19T10:11:27.660Z,98.10
2017-09-19T10:13:57.498Z,97.70
2017-09-19T10:16:27.088Z,98.70
2017-09-19T10:18:56.704Z,98.30
2017-09-19T10:21:26.570Z,96.60
2017-09-19T10:23:56.244Z,96.30
2017-09-19T10:26:25.960Z,97.10
2017-09-19T10:28:55.967Z,97.50
2017-09-19T10:31:25.549Z,98.10
2017-09-19T10:33:55.975Z,98.00
2017-09-19T10:36:25.843Z,98.00
2017-09-19T10:38:55.424Z,97.20
2017-09-19T10:41:25.004Z,95.90
2017-09-19T10:43:54.868Z,96.30
2017-09-19T10:46:24.404Z,96.10
2017-09-19T10:48:54.163Z,96.80
2017-09-19T10:51:25.142Z,98.20
2017-09-19T10:53:54.916Z,96.30
2017-09-19T10:56:24.479Z,96.00
2017-09-19T10:58:54.304Z,96.40
2017-09-19T11:01:23.955Z,95.30
2017-09-19T11:03:55.639Z,94.70
2017-09-19T11:06:26.299Z,94.70
2017-09-19T11:08:56.690Z,95.40
2017-09-19T11:11:26.236Z,95.30
2017-09-19T11:13:56.464Z,94.90
2017-09-19T11:16:26.836Z,95.80
2017-09-19T11:18:56.407Z,95.80
2017-09-19T11:21:26.327Z,95.90
2017-09-19T11:23:55.879Z,96.40
2017-09-19T11:26:26.237Z,96.20
2017-09-19T11:28:56.799Z,97.30
2017-09-19T11:31:26.318Z,97.30
2017-09-19T11:33:57.068Z,97.90
2017-09-19T11:36:27.394Z,97.60
2017-09-19T11:38:57.140Z,97.40
2017-09-19T11:41:27.539Z,96.10
2017-09-19T11:43:57.294Z,96.00
2017-09-19T11:46:27.774Z,97.50
2017-09-19T11:48:57.907Z,97.50
2017-09-19T11:51:28.207Z,97.40
2017-09-19T11:53:57.833Z,97.40
2017-09-19T11:56:27.777Z,98.00
2017-09-19T11:58:57.421Z,98.20
2017-09-19T12:01:27.035Z,97.80
2017-09-19T12:03:57.463Z,99.40
2017-09-19T12:06:27.892Z,99.90
2017-09-19T12:08:57.756Z,99.90
2017-09-19T12:11:28.249Z,99.90
2017-09-19T12:13:57.772Z,99.90
2017-09-19T12:16:28.660Z,99.90
2017-09-19T12:18:59.154Z,99.90
2017-09-19T12:21:29.476Z,99.90
2017-09-19T12:23:59.077Z,99.90
2017-09-19T12:26:30.456Z,99.90
2017-09-19T12:29:00.370Z,99.90
2017-09-19T12:31:29.992Z,99.90
2017-09-19T12:33:59.593Z,99.90
2017-09-19T12:36:29.479Z,99.90
2017-09-19T12:38:59.141Z,99.90
2017-09-19T12:41:28.719Z,99.90
2017-09-19T12:43:58.294Z,99.90
2017-09-19T12:46:28.599Z,99.90
2017-09-19T12:48:58.568Z,99.90
2017-09-19T12:51:40.105Z,99.90
2017-09-19T12:54:11.403Z,99.90
2017-09-19T12:56:40.979Z,99.90
2017-09-19T12:59:11.390Z,99.60
2017-09-19T13:01:42.037Z,99.10
2017-09-19T13:04:12.371Z,98.40
2017-09-19T13:06:41.984Z,98.40
2017-09-19T13:09:11.726Z,97.70
2017-09-19T13:11:41.326Z,96.60
2017-09-19T13:14:10.928Z,96.50
2017-09-19T13:16:40.490Z,95.70
2017-09-19T13:19:11.162Z,95.00
2017-09-19T13:21:40.715Z,95.00
2017-09-19T13:24:12.810Z,95.30
2017-09-19T13:26:42.818Z,95.30
2017-09-19T13:29:13.336Z,94.70
2017-09-19T13:33:50.616Z,94.70
2017-09-19T13:36:20.506Z,95.30
2017-09-19T13:38:50.114Z,94.00
2017-09-19T13:41:19.857Z,94.70
2017-09-19T13:43:50.307Z,94.80
2017-09-19T13:46:20.965Z,97.10
2017-09-19T13:48:51.426Z,97.00
2017-09-19T13:51:21.114Z,97.00
2017-09-19T13:53:50.771Z,96.70
2017-09-19T13:56:20.387Z,96.70
2017-09-19T13:58:49.984Z,95.20
2017-09-19T14:01:19.572Z,97.00
2017-09-19T14:03:53.434Z,97.60
2017-09-19T14:06:24.077Z,98.10
2017-09-19T14:08:53.622Z,97.60
2017-09-19T14:11:23.483Z,97.00
2017-09-19T14:13:53.913Z,98.20
2017-09-19T14:16:23.523Z,98.20
2017-09-19T14:18:53.678Z,96.90
2017-09-19T14:21:24.770Z,97.90
2017-09-19T14:23:54.348Z,97.90
2017-09-19T14:26:24.852Z,97.90
2017-09-19T14:28:54.514Z,97.90
2017-09-19T14:31:24.504Z,98.00
2017-09-19T14:33:54.256Z,99.30
2017-09-19T14:36:23.799Z,99.40
2017-09-19T14:38:53.369Z,99.40
2017-09-19T14:41:22.927Z,99.40
2017-09-19T14:43:57.479Z,98.90
2017-09-19T14:46:27.870Z,98.90
2017-09-19T14:48:57.649Z,99.10
2017-09-19T14:51:27.265Z,99.30
2017-09-19T14:53:56.893Z,99.90
2017-09-19T14:56:26.585Z,99.80
2017-09-19T14:58:56.216Z,99.90
2017-09-19T15:01:26.915Z,98.50
2017-09-19T15:03:57.324Z,98.40
2017-09-19T15:06:27.055Z,98.70
2017-09-19T15:08:56.779Z,98.80
2017-09-19T15:11:26.484Z,99.30
2017-09-19T15:13:56.101Z,99.60
2017-09-19T15:16:25.956Z,99.90
2017-09-19T15:18:56.427Z,99.90
2017-09-19T15:21:26.478Z,99.90
2017-09-19T15:23:56.602Z,99.90
2017-09-19T15:26:26.303Z,99.90
2017-09-19T15:28:57.163Z,99.90
2017-09-19T15:31:27.971Z,99.90
2017-09-19T15:33:57.563Z,99.90
2017-09-19T15:36:27.191Z,99.70
2017-09-19T15:38:57.177Z,99.40
2017-09-19T15:41:26.740Z,99.60
2017-09-19T15:43:56.502Z,99.70
2017-09-19T15:46:26.487Z,99.80
2017-09-19T15:48:56.088Z,99.70
2017-09-19T15:51:41.992Z,99.90
2017-09-19T15:54:11.888Z,99.90
2017-09-19T15:56:41.688Z,99.90
2017-09-19T15:59:11.309Z,99.90
2017-09-19T16:01:41.873Z,99.90
2017-09-19T16:04:11.377Z,99.90
2017-09-19T16:06:40.967Z,99.90
2017-09-19T16:09:10.827Z,99.90
2017-09-19T16:11:40.363Z,99.90
2017-09-19T16:14:09.910Z,99.30
2017-09-19T16:16:40.014Z,98.60
2017-09-19T16:19:11.045Z,99.00
2017-09-19T16:21:40.591Z,99.00
2017-09-19T16:24:10.624Z,97.20
2017-09-19T16:26:40.387Z,97.30
2017-09-19T16:29:10.126Z,97.60
2017-09-19T16:31:40.922Z,98.50
2017-09-19T16:34:11.400Z,98.70
2017-09-19T16:36:41.059Z,98.60
2017-09-19T16:39:13.587Z,99.70
2017-09-19T16:41:43.274Z,99.80
2017-09-19T16:44:13.171Z,99.20
2017-09-19T16:46:42.782Z,99.60
2017-09-19T16:49:12.465Z,99.90
2017-09-19T16:51:42.986Z,99.90
2017-09-19T16:54:13.400Z,99.90
2017-09-19T16:56:44.146Z,99.90
2017-09-19T16:59:14.446Z,99.40
2017-09-19T17:01:44.063Z,99.40
2017-09-19T17:04:14.017Z,99.90
2017-09-19T17:06:43.915Z,99.90
2017-09-19T17:09:13.679Z,99.90
2017-09-19T17:11:43.430Z,99.90
2017-09-19T17:14:13.300Z,99.90
2017-09-19T17:16:43.872Z,99.90
2017-09-19T17:19:14.145Z,99.90
2017-09-19T17:21:44.228Z,99.90
2017-09-19T17:24:14.562Z,99.90
2017-09-19T17:26:45.476Z,99.90
2017-09-19T17:29:15.725Z,99.90
2017-09-19T17:31:46.014Z,99.90
2017-09-19T17:34:16.136Z,99.90
2017-09-19T17:36:46.513Z,99.90
2017-09-19T17:39:17.030Z,99.90
2017-09-19T17:41:48.542Z,99.90
2017-09-19T17:44:18.783Z,99.90
2017-09-19T17:46:48.996Z,99.90
2017-09-19T17:49:19.555Z,99.90
2017-09-19T17:51:50.735Z,99.90
2017-09-19T17:54:22.014Z,99.90
2017-09-19T17:56:52.475Z,99.90
2017-09-19T17:59:23.319Z,99.60
2017-09-19T18:01:54.099Z,99.90
2017-09-19T18:04:24.316Z,99.90
2017-09-19T18:06:54.884Z,99.50
2017-09-19T18:09:25.228Z,99.90
2017-09-19T18:11:56.310Z,99.90
2017-09-19T18:14:28.909Z,99.90
2017-09-19T18:16:59.823Z,99.90
2017-09-19T18:19:31.247Z,99.90
2017-09-19T18:22:03.004Z,99.90
2017-09-19T18:24:41.072Z,99.30
2017-09-19T18:27:13.867Z,99.60
2017-09-19T18:29:46.481Z,99.50
2017-09-19T18:32:16.731Z,99.50
2017-09-19T18:34:47.033Z,98.30
2017-09-19T18:37:18.743Z,99.80
2017-09-19T18:39:49.533Z,99.20
2017-09-19T18:42:20.927Z,99.70
2017-09-19T18:44:51.562Z,99.30
2017-09-19T18:47:22.919Z,98.20
2017-09-19T18:49:54.550Z,97.70
2017-09-19T18:52:25.867Z,98.70
2017-09-19T18:54:58.621Z,99.50
2017-09-19T18:57:29.607Z,99.20
2017-09-19T19:00:04.134Z,99.30
2017-09-19T19:02:37.268Z,99.30
2017-09-19T19:05:09.827Z,98.40
2017-09-19T19:07:41.507Z,99.10
2017-09-19T19:10:13.529Z,99.20
2017-09-19T19:12:45.508Z,99.80
2017-09-19T19:15:16.191Z,99.90
2017-09-19T19:17:47.498Z,99.60
2017-09-19T19:20:19.082Z,98.60
2017-09-19T19:22:51.985Z,99.30
2017-09-19T19:25:27.327Z,99.10
2017-09-19T19:27:57.734Z,99.40
2017-09-19T19:30:30.701Z,99.90
2017-09-19T19:33:02.738Z,99.90
2017-09-19T19:35:33.284Z,99.90
2017-09-19T19:38:04.591Z,99.40
2017-09-19T19:40:35.466Z,99.50
2017-09-19T19:43:07.733Z,99.30
2017-09-19T19:45:38.752Z,99.90
2017-09-19T19:48:10.049Z,99.40
2017-09-19T19:50:40.480Z,99.90
2017-09-19T19:53:13.507Z,99.90
2017-09-19T19:55:43.975Z,99.90
2017-09-19T19:58:16.117Z,98.90
2017-09-19T20:00:46.995Z,98.90
2017-09-19T20:03:19.330Z,99.40
2017-09-19T20:05:50.610Z,99.90
2017-09-19T20:08:24.496Z,99.90
2017-09-19T20:10:54.668Z,99.90
2017-09-19T20:13:25.984Z,99.90
2017-09-19T20:15:56.847Z,99.90
2017-09-19T20:18:28.071Z,99.90
2017-09-19T20:20:58.527Z,99.90
2017-09-19T20:23:28.900Z,99.90
2017-09-19T20:26:00.169Z,99.90
2017-09-19T20:28:31.666Z,99.90
2017-09-19T20:31:03.432Z,99.90
2017-09-19T20:33:33.799Z,99.90
2017-09-19T20:36:03.619Z,99.90
2017-09-19T20:38:33.711Z,99.90
2017-09-19T20:41:03.523Z,99.90
2017-09-19T20:43:34.130Z,99.90
2017-09-19T20:46:05.466Z,99.90
2017-09-19T20:48:35.623Z,99.90
2017-09-19T20:51:05.291Z,99.90
2017-09-19T20:53:35.738Z,99.90
2017-09-19T20:56:05.870Z,99.90
2017-09-19T20:58:36.496Z,99.90
2017-09-19T21:01:08.727Z,99.90
2017-09-19T21:03:43.644Z,99.90
2017-09-19T21:06:19.493Z,99.90
2017-09-19T21:08:54.900Z,99.90
2017-09-19T21:11:30.679Z,99.90
2017-09-19T21:14:06.033Z,99.90
2017-09-19T21:16:41.115Z,99.90
2017-09-19T21:19:16.763Z,99.90
2017-09-19T21:21:46.845Z,99.90
2017-09-19T21:24:16.802Z,99.90
2017-09-19T21:26:46.553Z,99.90
2017-09-19T21:29:16.096Z,99.90
2017-09-19T21:31:46.406Z,99.90
2017-09-19T21:34:16.588Z,99.90
2017-09-19T21:36:46.790Z,99.90
2017-09-19T21:39:17.213Z,99.90
2017-09-19T21:41:47.843Z,99.90
2017-09-19T21:44:17.751Z,99.90
2017-09-19T21:46:48.216Z,99.90
2017-09-19T21:49:18.972Z,99.90
2017-09-19T21:51:48.857Z,99.90
2017-09-19T21:54:19.583Z,99.90
2017-09-19T21:56:49.731Z,99.90
2017-09-19T21:59:19.687Z,99.90
2017-09-19T22:01:50.270Z,99.90
2017-09-19T22:04:20.324Z,99.90
2017-09-19T22:06:51.971Z,99.90
2017-09-19T22:09:23.041Z,99.90
2017-09-19T22:11:53.202Z,99.90
2017-09-19T22:14:24.216Z,99.90
2017-09-19T22:16:55.024Z,99.90
2017-09-19T22:19:24.950Z,99.90
2017-09-19T22:21:55.466Z,99.90
2017-09-19T22:24:25.467Z,99.90
2017-09-19T22:26:55.424Z,99.90
2017-09-19T22:29:25.866Z,99.90
2017-09-19T22:31:56.788Z,99.90
2017-09-19T22:34:26.866Z,99.90
2017-09-19T22:36:57.255Z,99.90
2017-09-19T22:39:27.991Z,99.90
2017-09-19T22:41:58.741Z,99.90
2017-09-19T22:44:28.842Z,99.90
2017-09-19T22:46:58.632Z,99.90
2017-09-19T22:49:30.122Z,99.90
2017-09-19T22:52:00.635Z,99.90
2017-09-19T22:54:31.502Z,99.90
2017-09-19T22:57:01.487Z,99.90
2017-09-19T22:59:31.961Z,99.90
2017-09-19T23:02:01.826Z,99.90
2017-09-19T23:04:32.097Z,99.90
2017-09-19T23:07:02.111Z,99.90
2017-09-19T23:09:32.429Z,99.90
2017-09-19T23:12:03.042Z,99.90
2017-09-19T23:14:34.595Z,99.90
2017-09-19T23:17:05.967Z,99.90
2017-09-19T23:19:35.963Z,99.90
2017-09-19T23:22:06.470Z,99.90
2017-09-19T23:24:36.514Z,99.90
2017-09-19T23:27:08.893Z,99.90
2017-09-19T23:29:41.220Z,99.90
2017-09-19T23:32:12.111Z,99.90
2017-09-19T23:34:42.172Z,99.90
2017-09-19T23:37:12.808Z,99.90
2017-09-19T23:39:42.979Z,99.90
2017-09-19T23:42:13.423Z,99.90
2017-09-19T23:44:45.445Z,99.90
2017-09-19T23:47:16.931Z,99.90
2017-09-19T23:49:49.095Z,99.90
2017-09-19T23:52:20.971Z,99.90
2017-09-19T23:54:51.616Z,99.90
2017-09-19T23:57:22.314Z,99.90
2017-09-19T23:59:53.552Z,99.90
